Time;durP1;ratioP1;P1;durP2;ratioP2;P2;SDS_P1;SDS_P2;PMS_P1;PMS_P2;Temp;Humidity;BMP_temperature;BMP_pressure;BME280_temperature;BME280_humidity;BME280_pressure;Samples;Min_cycle;Max_cycle;Signal;HPM_P1;HPM_P2
2022/03/23 00:02:13;;;;;;;21.75;12.68;;;;;;;;;;5030348;28;20538;-80
2022/03/23 00:04:39;;;;;;;22.20;13.02;;;;;;;;;;5030126;28;20479;-80
2022/03/23 00:07:04;;;;;;;20.85;12.35;;;;;;;;;;5026415;28;20127;-79
2022/03/23 00:09:30;;;;;;;22.73;12.73;;;;;;;;;;5027598;28;20813;-80
2022/03/23 00:11:55;;;;;;;21.38;12.48;;;;;;;;;;5028984;28;20452;-79
2022/03/23 00:14:20;;;;;;;21.02;12.82;;;;;;;;;;5031442;28;20432;-78
2022/03/23 00:16:45;;;;;;;22.52;12.60;;;;;;;;;;5027103;28;20175;-80
2022/03/23 00:19:11;;;;;;;21.42;12.95;;;;;;;;;;5027201;28;20044;-79
2022/03/23 00:21:37;;;;;;;23.67;12.98;;;;;;;;;;5029449;28;20396;-79
2022/03/23 00:24:03;;;;;;;21.90;13.35;;;;;;;;;;5042329;28;20036;-80
2022/03/23 00:26:29;;;;;;;20.27;12.13;;;;;;;;;;5027828;28;20389;-80
2022/03/23 00:28:54;;;;;;;20.15;12.10;;;;;;;;;;5028475;28;20037;-80
2022/03/23 00:31:20;;;;;;;21.77;12.95;;;;;;;;;;5028242;28;20392;-78
2022/03/23 00:33:46;;;;;;;19.02;12.43;;;;;;;;;;5029842;28;20059;-78
2022/03/23 00:36:12;;;;;;;20.83;13.13;;;;;;;;;;5027985;28;20037;-78
2022/03/23 00:38:38;;;;;;;23.60;12.40;;;;;;;;;;5043123;28;20037;-80
2022/03/23 00:41:03;;;;;;;21.10;12.57;;;;;;;;;;5046204;28;20025;-80
2022/03/23 00:43:29;;;;;;;21.38;12.25;;;;;;;;;;5029289;28;20028;-79
2022/03/23 00:45:54;;;;;;;20.05;13.35;;;;;;;;;;5042665;28;20033;-79
2022/03/23 00:48:20;;;;;;;24.05;13.27;;;;;;;;;;5031437;28;20040;-80
2022/03/23 00:50:46;;;;;;;17.95;12.15;;;;;;;;;;5030526;28;20512;-79
2022/03/23 00:53:11;;;;;;;23.00;13.30;;;;;;;;;;5039849;28;20511;-79
2022/03/23 00:55:36;;;;;;;24.88;13.02;;;;;;;;;;5044490;28;20112;-79
2022/03/23 00:58:02;;;;;;;21.50;13.27;;;;;;;;;;5017481;28;21427;-80
2022/03/23 01:00:27;;;;;;;23.67;12.85;;;;;;;;;;5026935;28;20132;-79
2022/03/23 01:02:53;;;;;;;22.27;13.55;;;;;;;;;;5028828;28;20518;-80
2022/03/23 01:05:19;;;;;;;28.20;14.15;;;;;;;;;;5025286;28;20026;-80
2022/03/23 01:07:44;;;;;;;22.65;13.60;;;;;;;;;;5030060;28;20033;-79
2022/03/23 01:10:12;;;;;;;20.88;12.32;;;;;;;;;;5023479;28;20565;-80
2022/03/23 01:12:38;;;;;;;;;;;;;;;;;;5031823;28;20033;-79
2022/03/23 01:15:03;;;;;;;20.98;12.50;;;;;;;;;;5044352;28;19921;-79
2022/03/23 01:17:29;;;;;;;22.58;12.73;;;;;;;;;;5028548;28;20038;-80
2022/03/23 01:19:54;;;;;;;22.42;12.75;;;;;;;;;;5028030;28;20051;-80
2022/03/23 01:22:19;;;;;;;21.20;13.15;;;;;;;;;;5020241;28;20026;-79
2022/03/23 01:24:45;;;;;;;21.90;13.20;;;;;;;;;;5024672;28;20052;-79
2022/03/23 01:27:10;;;;;;;22.40;13.45;;;;;;;;;;5027690;28;20040;-79
2022/03/23 01:29:36;;;;;;;24.65;14.27;;;;;;;;;;5033356;28;20044;-78
2022/03/23 01:32:01;;;;;;;20.55;13.18;;;;;;;;;;5029579;28;20051;-78
2022/03/23 01:34:26;;;;;;;24.85;13.55;;;;;;;;;;5039735;28;20068;-78
2022/03/23 01:36:52;;;;;;;22.45;13.93;;;;;;;;;;5027818;28;20493;-78
2022/03/23 01:39:17;;;;;;;21.05;13.60;;;;;;;;;;5028918;28;20124;-79
2022/03/23 01:41:42;;;;;;;22.60;13.73;;;;;;;;;;5030322;28;20048;-78
2022/03/23 01:44:13;;;;;;;23.52;13.93;;;;;;;;;;5033143;28;20037;-78
2022/03/23 01:47:07;;;;;;;19.90;13.60;;;;;;;;;;5046774;28;20036;-79
2022/03/23 01:49:35;;;;;;;23.50;14.40;;;;;;;;;;5022125;28;20088;-79
2022/03/23 01:52:00;;;;;;;21.42;13.23;;;;;;;;;;5050288;28;20090;-79
2022/03/23 01:54:25;;;;;;;21.67;13.65;;;;;;;;;;5034219;28;20073;-79
2022/03/23 01:56:51;;;;;;;21.63;13.90;;;;;;;;;;5033929;28;20037;-79
2022/03/23 01:59:17;;;;;;;22.17;13.60;;;;;;;;;;5031732;28;20135;-79
2022/03/23 02:01:43;;;;;;;23.25;14.35;;;;;;;;;;5033152;28;20044;-78
2022/03/23 02:04:09;;;;;;;21.48;13.13;;;;;;;;;;5032907;28;20403;-79
2022/03/23 02:06:35;;;;;;;21.88;13.77;;;;;;;;;;5033196;28;20025;-78
2022/03/23 02:09:00;;;;;;;23.48;14.30;;;;;;;;;;5032368;28;20164;-78
2022/03/23 02:11:25;;;;;;;21.42;14.50;;;;;;;;;;5035114;28;20060;-80
2022/03/23 02:13:53;;;;;;;24.67;14.05;;;;;;;;;;5045375;28;20037;-79
2022/03/23 02:16:18;;;;;;;;;;;;;;;;;;5041752;28;20033;-78
2022/03/23 02:18:43;;;;;;;20.57;13.90;;;;;;;;;;5030810;28;19917;-79
2022/03/23 02:21:13;;;;;;;23.10;14.20;;;;;;;;;;5028285;28;20040;-79
2022/03/23 02:23:38;;;;;;;22.48;14.18;;;;;;;;;;5031869;28;20045;-79
2022/03/23 02:26:04;;;;;;;25.63;15.10;;;;;;;;;;5034467;28;20045;-78
2022/03/23 02:28:29;;;;;;;22.88;14.60;;;;;;;;;;5032261;28;20029;-79
2022/03/23 02:30:55;;;;;;;22.75;14.18;;;;;;;;;;5031269;28;20488;-78
2022/03/23 02:33:21;;;;;;;21.58;13.90;;;;;;;;;;5045472;28;20047;-79
2022/03/23 02:35:48;;;;;;;22.98;14.48;;;;;;;;;;5044972;28;20033;-78
2022/03/23 02:38:14;;;;;;;23.42;15.27;;;;;;;;;;5032126;28;20572;-78
2022/03/23 02:40:39;;;;;;;21.58;13.73;;;;;;;;;;5018104;28;20376;-79
2022/03/23 02:43:05;;;;;;;22.77;13.90;;;;;;;;;;5032535;28;20124;-80
2022/03/23 02:45:30;;;;;;;21.05;14.57;;;;;;;;;;5030439;28;20605;-80
2022/03/23 02:47:56;;;;;;;24.00;14.85;;;;;;;;;;5041141;28;20501;-79
2022/03/23 02:50:24;;;;;;;23.92;15.27;;;;;;;;;;5029626;28;20527;-78
2022/03/23 03:03:56;;;;;;;23.13;15.65;;;;;;;;;;5040794;28;20124;-78
2022/03/23 03:06:21;;;;;;;25.10;14.88;;;;;;;;;;5032825;28;20124;-79
2022/03/23 03:08:47;;;;;;;22.50;14.48;;;;;;;;;;5032151;28;20441;-78
2022/03/23 03:11:14;;;;;;;25.05;15.27;;;;;;;;;;5030371;28;20036;-78
2022/03/23 03:13:41;;;;;;;23.07;15.23;;;;;;;;;;5031501;28;20033;-79
2022/03/23 03:16:06;;;;;;;25.42;15.57;;;;;;;;;;5018649;28;20993;-78
2022/03/23 03:18:33;;;;;;;22.23;14.70;;;;;;;;;;5027105;28;20120;-78
2022/03/23 03:20:58;;;;;;;22.58;15.10;;;;;;;;;;5032056;28;20036;-78
2022/03/23 03:23:25;;;;;;;22.70;15.52;;;;;;;;;;5032863;28;20037;-79
2022/03/23 03:25:51;;;;;;;22.20;15.25;;;;;;;;;;5039418;28;20041;-79
2022/03/23 03:28:16;;;;;;;27.88;15.15;;;;;;;;;;5042665;28;20451;-79
2022/03/23 03:30:41;;;;;;;23.15;14.95;;;;;;;;;;5031179;28;20032;-79
2022/03/23 03:33:07;;;;;;;22.92;14.95;;;;;;;;;;5040175;28;20037;-79
2022/03/23 03:35:32;;;;;;;22.15;15.43;;;;;;;;;;5027556;28;20041;-79
2022/03/23 03:37:57;;;;;;;24.20;15.75;;;;;;;;;;5046258;28;20056;-79
2022/03/23 03:40:23;;;;;;;22.25;15.52;;;;;;;;;;5018121;28;20041;-79
2022/03/23 03:42:48;;;;;;;26.38;15.77;;;;;;;;;;5031058;28;20100;-78
2022/03/23 03:45:13;;;;;;;21.92;15.38;;;;;;;;;;5018745;28;20048;-79
2022/03/23 03:47:38;;;;;;;23.85;15.48;;;;;;;;;;5010496;28;20506;-79
2022/03/23 03:50:04;;;;;;;24.63;16.60;;;;;;;;;;5014732;28;20029;-79
2022/03/23 03:52:30;;;;;;;24.38;15.05;;;;;;;;;;5011576;28;20401;-79
2022/03/23 03:54:55;;;;;;;23.33;15.52;;;;;;;;;;5024567;28;20041;-81
2022/03/23 03:57:21;;;;;;;22.67;15.27;;;;;;;;;;5008974;28;20175;-79
2022/03/23 03:59:46;;;;;;;25.48;16.08;;;;;;;;;;5005208;28;20064;-79
2022/03/23 04:02:11;;;;;;;24.95;14.90;;;;;;;;;;5023333;28;20084;-80
2022/03/23 04:04:37;;;;;;;24.02;16.50;;;;;;;;;;5028925;28;20036;-81
2022/03/23 04:07:04;;;;;;;24.90;15.80;;;;;;;;;;5023866;28;20040;-79
2022/03/23 04:09:29;;;;;;;24.25;15.95;;;;;;;;;;5030908;28;20484;-80
2022/03/23 04:11:54;;;;;;;25.13;15.85;;;;;;;;;;5025371;28;20087;-78
2022/03/23 04:14:20;;;;;;;24.35;15.98;;;;;;;;;;5029034;28;20095;-78
2022/03/23 04:16:45;;;;;;;26.27;16.23;;;;;;;;;;5025546;28;20094;-79
2022/03/23 04:19:10;;;;;;;25.38;15.65;;;;;;;;;;5028347;28;20063;-80
2022/03/23 04:21:35;;;;;;;24.80;15.15;;;;;;;;;;5030080;28;20500;-80
2022/03/23 04:24:01;;;;;;;24.70;15.30;;;;;;;;;;5026524;28;21078;-79
2022/03/23 04:26:26;;;;;;;26.38;16.15;;;;;;;;;;5026913;28;20048;-79
2022/03/23 04:28:51;;;;;;;24.60;16.00;;;;;;;;;;5042284;28;20113;-79
2022/03/23 04:31:17;;;;;;;23.70;15.35;;;;;;;;;;5039648;28;20036;-80
2022/03/23 04:33:42;;;;;;;26.98;15.85;;;;;;;;;;5031701;28;20036;-80
2022/03/23 04:36:09;;;;;;;22.85;15.63;;;;;;;;;;5039734;28;20123;-78
2022/03/23 04:38:34;;;;;;;26.42;15.70;;;;;;;;;;5043609;28;20056;-80
2022/03/23 04:41:00;;;;;;;24.77;15.57;;;;;;;;;;5020651;28;20034;-80
2022/03/23 04:43:25;;;;;;;24.13;15.40;;;;;;;;;;5041520;28;20175;-80
2022/03/23 04:45:50;;;;;;;25.23;15.73;;;;;;;;;;5021681;28;20036;-81
2022/03/23 04:48:17;;;;;;;25.85;15.40;;;;;;;;;;5025379;28;20050;-80
2022/03/23 04:50:42;;;;;;;23.67;15.93;;;;;;;;;;5028558;28;20109;-80
2022/03/23 04:53:07;;;;;;;27.40;17.40;;;;;;;;;;5030825;28;20037;-80
2022/03/23 04:55:34;;;;;;;27.08;16.58;;;;;;;;;;5025275;28;20037;-80
2022/03/23 04:58:02;;;;;;;25.38;16.50;;;;;;;;;;5031001;28;20033;-79
2022/03/23 05:00:28;;;;;;;26.25;16.10;;;;;;;;;;5042525;28;20175;-78
2022/03/23 05:02:53;;;;;;;27.80;15.98;;;;;;;;;;5021151;28;20139;-79
2022/03/23 05:05:18;;;;;;;26.85;16.02;;;;;;;;;;5029861;28;20041;-80
2022/03/23 05:07:45;;;;;;;28.88;16.50;;;;;;;;;;5028112;28;20045;-80
2022/03/23 05:10:12;;;;;;;25.15;16.25;;;;;;;;;;5026571;28;20029;-80
2022/03/23 05:12:38;;;;;;;28.03;16.23;;;;;;;;;;5027923;28;20033;-79
2022/03/23 05:15:05;;;;;;;24.80;16.10;;;;;;;;;;5004872;28;20041;-80
2022/03/23 05:17:31;;;;;;;25.30;15.80;;;;;;;;;;5031853;28;20037;-79
2022/03/23 05:19:56;;;;;;;27.05;14.90;;;;;;;;;;5030444;28;20053;-80
2022/03/23 05:22:22;;;;;;;24.35;15.30;;;;;;;;;;5041980;28;20083;-79
2022/03/23 05:24:47;;;;;;;25.25;15.50;;;;;;;;;;5030212;28;20563;-79
2022/03/23 05:27:13;;;;;;;24.90;15.57;;;;;;;;;;4999513;28;20053;-80
2022/03/23 05:29:38;;;;;;;25.70;15.80;;;;;;;;;;5010952;28;20810;-80
2022/03/23 05:32:04;;;;;;;25.15;16.48;;;;;;;;;;5028412;28;20587;-80
2022/03/23 05:34:29;;;;;;;24.67;16.40;;;;;;;;;;5034767;28;20041;-79
2022/03/23 05:36:56;;;;;;;24.25;16.90;;;;;;;;;;5029008;28;20059;-79
2022/03/23 05:39:21;;;;;;;26.13;15.82;;;;;;;;;;5033353;28;20052;-79
2022/03/23 05:41:46;;;;;;;25.15;15.57;;;;;;;;;;5044163;28;20045;-79
2022/03/23 05:44:12;;;;;;;28.63;18.08;;;;;;;;;;5043189;28;20041;-79
2022/03/23 05:46:37;;;;;;;27.60;16.77;;;;;;;;;;5034120;28;20040;-80
2022/03/23 05:49:03;;;;;;;28.73;16.60;;;;;;;;;;5031617;28;20403;-79
2022/03/23 05:51:28;;;;;;;30.20;17.05;;;;;;;;;;5024920;28;20048;-79
2022/03/23 05:53:56;;;;;;;26.05;16.30;;;;;;;;;;5030390;28;20123;-79
2022/03/23 05:56:22;;;;;;;32.10;17.67;;;;;;;;;;5027378;28;20063;-80
2022/03/23 05:58:48;;;;;;;30.58;16.80;;;;;;;;;;5031578;28;20483;-80
2022/03/23 06:01:13;;;;;;;31.33;18.10;;;;;;;;;;5031762;28;20036;-80
2022/03/23 06:03:39;;;;;;;30.50;17.90;;;;;;;;;;5043623;28;20088;-81
2022/03/23 06:06:04;;;;;;;33.80;18.35;;;;;;;;;;5043382;28;20399;-79
2022/03/23 06:08:29;;;;;;;29.88;18.15;;;;;;;;;;5029135;28;20044;-80
2022/03/23 06:10:55;;;;;;;27.58;17.80;;;;;;;;;;5023191;28;20064;-79
2022/03/23 06:13:20;;;;;;;30.85;18.48;;;;;;;;;;5034778;28;20060;-79
2022/03/23 06:15:46;;;;;;;32.67;18.80;;;;;;;;;;5017109;28;20044;-80
2022/03/23 06:18:11;;;;;;;35.35;20.40;;;;;;;;;;5030177;28;20079;-80
2022/03/23 06:20:37;;;;;;;41.67;23.58;;;;;;;;;;5029748;28;20048;-80
2022/03/23 06:23:03;;;;;;;30.55;19.92;;;;;;;;;;5022826;28;20773;-80
2022/03/23 06:25:29;;;;;;;30.38;18.88;;;;;;;;;;5015403;28;20095;-81
2022/03/23 06:27:54;;;;;;;29.80;18.05;;;;;;;;;;5015836;28;20088;-80
2022/03/23 06:30:19;;;;;;;31.98;18.13;;;;;;;;;;5014226;28;20072;-80
2022/03/23 06:32:45;;;;;;;28.95;17.63;;;;;;;;;;5030913;28;20046;-80
2022/03/23 06:35:10;;;;;;;29.95;18.10;;;;;;;;;;5027711;28;20044;-80
2022/03/23 06:37:36;;;;;;;28.65;18.50;;;;;;;;;;5031159;28;20098;-80
2022/03/23 06:40:03;;;;;;;29.52;18.00;;;;;;;;;;5050504;28;20035;-80
2022/03/23 06:42:28;;;;;;;31.45;18.30;;;;;;;;;;5028741;28;20036;-81
2022/03/23 06:44:54;;;;;;;36.55;18.40;;;;;;;;;;5031595;28;20462;-79
2022/03/23 06:47:19;;;;;;;27.63;17.80;;;;;;;;;;5029647;28;20033;-80
2022/03/23 06:49:45;;;;;;;32.35;18.40;;;;;;;;;;5044264;28;20160;-80
2022/03/23 06:52:10;;;;;;;28.55;17.98;;;;;;;;;;5035218;28;20500;-80
2022/03/23 06:54:36;;;;;;;30.17;18.10;;;;;;;;;;5034885;28;20087;-80
2022/03/23 06:57:01;;;;;;;27.15;18.42;;;;;;;;;;5031013;28;20036;-80
2022/03/23 06:59:27;;;;;;;29.05;17.73;;;;;;;;;;5046849;28;20055;-81
2022/03/23 07:01:52;;;;;;;27.70;17.75;;;;;;;;;;5029656;28;20068;-80
2022/03/23 07:04:17;;;;;;;71.35;39.47;;;;;;;;;;5040925;28;20057;-79
2022/03/23 07:06:43;;;;;;;28.27;18.23;;;;;;;;;;5039158;28;20515;-80
2022/03/23 07:11:52;;;;;;;32.42;18.30;;;;;;;;;;5040390;28;20039;-79
2022/03/23 07:14:18;;;;;;;28.73;18.13;;;;;;;;;;5025421;28;20037;-80
2022/03/23 07:16:43;;;;;;;31.00;17.95;;;;;;;;;;5027776;28;20029;-80
2022/03/23 07:19:09;;;;;;;29.30;17.88;;;;;;;;;;5031716;28;20040;-80
2022/03/23 07:21:35;;;;;;;27.77;17.73;;;;;;;;;;5029952;28;20370;-80
2022/03/23 07:24:00;;;;;;;29.50;19.27;;;;;;;;;;5030987;28;20041;-79
2022/03/23 07:26:26;;;;;;;26.77;17.92;;;;;;;;;;5028826;28;20041;-80
2022/03/23 07:28:51;;;;;;;28.73;17.42;;;;;;;;;;5041927;28;20404;-79
2022/03/23 07:31:16;;;;;;;29.35;16.55;;;;;;;;;;5031696;28;20499;-79
2022/03/23 07:33:42;;;;;;;25.35;16.83;;;;;;;;;;5033300;28;20394;-80
2022/03/23 07:36:07;;;;;;;24.00;16.38;;;;;;;;;;5029835;28;20068;-80
2022/03/23 07:38:33;;;;;;;27.10;17.05;;;;;;;;;;5027858;28;20056;-80
2022/03/23 07:40:58;;;;;;;24.35;17.02;;;;;;;;;;5043542;28;20068;-80
2022/03/23 07:43:23;;;;;;;23.83;16.98;;;;;;;;;;5043167;28;20045;-79
2022/03/23 07:45:49;;;;;;;27.85;17.73;;;;;;;;;;5029609;28;20528;-80
2022/03/23 07:48:17;;;;;;;27.75;17.52;;;;;;;;;;5031545;28;20055;-81
2022/03/23 07:50:43;;;;;;;26.58;17.95;;;;;;;;;;5028826;28;20092;-79
2022/03/23 07:53:11;;;;;;;25.67;18.70;;;;;;;;;;5046601;28;20117;-80
2022/03/23 07:55:36;;;;;;;26.00;17.65;;;;;;;;;;5040488;28;20119;-81
2022/03/23 07:58:02;;;;;;;27.42;17.42;;;;;;;;;;5029900;28;20036;-79
2022/03/23 08:00:27;;;;;;;27.25;17.23;;;;;;;;;;5028622;28;20517;-80
2022/03/23 08:02:52;;;;;;;26.23;18.08;;;;;;;;;;5044236;28;20051;-80
2022/03/23 08:05:18;;;;;;;25.85;17.08;;;;;;;;;;5040401;28;20037;-81
2022/03/23 08:07:45;;;;;;;26.58;18.00;;;;;;;;;;5038422;28;20489;-80
2022/03/23 08:10:10;;;;;;;24.30;17.17;;;;;;;;;;5031151;28;20032;-80
2022/03/23 08:12:35;;;;;;;26.13;17.52;;;;;;;;;;5047603;28;20820;-80
2022/03/23 08:15:01;;;;;;;28.80;17.60;;;;;;;;;;5031274;28;20029;-80
2022/03/23 08:17:26;;;;;;;28.40;18.25;;;;;;;;;;5027000;28;20447;-79
2022/03/23 08:22:35;;;;;;;26.90;18.17;;;;;;;;;;5040563;28;20040;-80
2022/03/23 08:25:01;;;;;;;23.85;18.70;;;;;;;;;;5029491;28;20041;-80
2022/03/23 08:27:26;;;;;;;24.17;17.70;;;;;;;;;;5023369;28;20057;-79
2022/03/23 08:29:52;;;;;;;22.52;18.08;;;;;;;;;;5043418;28;20036;-80
2022/03/23 08:32:17;;;;;;;26.52;17.35;;;;;;;;;;5029407;28;20048;-80
2022/03/23 08:34:43;;;;;;;22.63;16.08;;;;;;;;;;5030893;28;20446;-80
2022/03/23 08:37:08;;;;;;;19.05;15.32;;;;;;;;;;5036665;28;20047;-81
2022/03/23 08:39:33;;;;;;;19.92;15.20;;;;;;;;;;5042486;28;20036;-80
2022/03/23 08:41:59;;;;;;;23.92;16.35;;;;;;;;;;5018865;28;20038;-80
2022/03/23 08:44:24;;;;;;;20.88;15.40;;;;;;;;;;5028906;28;20579;-80
2022/03/23 08:46:49;;;;;;;19.50;15.07;;;;;;;;;;5025913;28;20136;-80
2022/03/23 08:49:14;;;;;;;21.35;14.98;;;;;;;;;;5028991;28;20064;-81
2022/03/23 08:51:40;;;;;;;19.67;13.82;;;;;;;;;;5030804;28;20056;-80
2022/03/23 08:54:05;;;;;;;16.38;13.40;;;;;;;;;;5030330;28;20059;-80
2022/03/23 08:56:31;;;;;;;20.77;14.25;;;;;;;;;;5027980;28;20125;-80
2022/03/23 08:58:56;;;;;;;20.20;13.65;;;;;;;;;;5025517;28;20041;-80
2022/03/23 09:01:22;;;;;;;20.23;15.10;;;;;;;;;;5029412;28;20056;-80
2022/03/23 09:03:47;;;;;;;23.50;13.82;;;;;;;;;;5022993;28;20041;-81
2022/03/23 09:06:12;;;;;;;21.63;13.25;;;;;;;;;;5039273;28;20098;-80
2022/03/23 09:08:38;;;;;;;17.88;13.27;;;;;;;;;;5029749;28;20026;-81
2022/03/23 09:11:04;;;;;;;19.25;13.55;;;;;;;;;;5037936;28;20570;-80
2022/03/23 09:13:29;;;;;;;17.70;13.02;;;;;;;;;;5037960;28;20485;-80
2022/03/23 09:15:54;;;;;;;17.73;12.82;;;;;;;;;;5027309;28;20037;-81
2022/03/23 09:18:20;;;;;;;16.75;12.43;;;;;;;;;;5028261;28;20045;-81
2022/03/23 09:20:46;;;;;;;19.65;13.70;;;;;;;;;;5042063;28;20029;-81
2022/03/23 09:23:12;;;;;;;16.98;13.00;;;;;;;;;;5028709;28;20053;-81
2022/03/23 09:25:39;;;;;;;16.38;13.13;;;;;;;;;;5029957;28;20179;-80
2022/03/23 09:28:05;;;;;;;21.73;13.25;;;;;;;;;;5039148;28;20595;-80
2022/03/23 09:30:30;;;;;;;18.15;12.98;;;;;;;;;;5028201;28;20044;-81
2022/03/23 09:32:57;;;;;;;18.48;13.13;;;;;;;;;;5027497;28;20041;-82
2022/03/23 09:35:22;;;;;;;22.52;13.77;;;;;;;;;;5039942;28;20025;-82
2022/03/23 09:37:47;;;;;;;17.88;13.45;;;;;;;;;;5038753;28;20086;-80
2022/03/23 09:40:24;;;;;;;17.95;13.60;;;;;;;;;;5027492;28;20121;-81
2022/03/23 09:42:51;;;;;;;17.70;13.70;;;;;;;;;;5029787;28;20037;-81
2022/03/23 09:48:02;;;;;;;20.83;13.40;;;;;;;;;;5039157;28;20586;-81
2022/03/23 09:50:29;;;;;;;19.20;13.60;;;;;;;;;;5029541;28;20036;-81
2022/03/23 09:52:56;;;;;;;17.55;13.20;;;;;;;;;;5029762;28;20489;-82
2022/03/23 09:55:22;;;;;;;21.73;13.70;;;;;;;;;;5028649;28;20364;-81
2022/03/23 09:57:47;;;;;;;18.30;14.18;;;;;;;;;;5025692;28;20076;-81
2022/03/23 10:00:13;;;;;;;18.02;13.38;;;;;;;;;;5024803;28;20486;-81
2022/03/23 10:02:39;;;;;;;18.05;13.82;;;;;;;;;;5046345;28;20040;-80
2022/03/23 10:05:25;;;;;;;21.00;13.73;;;;;;;;;;5050388;28;20028;-80
2022/03/23 10:08:18;;;;;;;17.75;14.05;;;;;;;;;;5049295;28;20037;-83
2022/03/23 10:11:21;;;;;;;18.83;14.15;;;;;;;;;;5048786;28;20056;-82
2022/03/23 10:14:43;;;;;;;19.50;14.30;;;;;;;;;;5049444;28;20048;-81
2022/03/23 10:17:30;;;;;;;21.05;14.85;;;;;;;;;;4986648;28;20585;-82
2022/03/23 10:19:55;;;;;;;18.63;15.18;;;;;;;;;;4987690;28;20034;-81
2022/03/23 10:22:25;;;;;;;22.50;15.45;;;;;;;;;;5017490;28;20060;-81
2022/03/23 10:24:53;;;;;;;23.58;15.32;;;;;;;;;;5040022;28;20116;-81
2022/03/23 10:27:22;;;;;;;21.27;15.18;;;;;;;;;;5023145;28;20033;-81
2022/03/23 10:29:52;;;;;;;25.30;15.02;;;;;;;;;;5044041;28;20099;-81
2022/03/23 10:32:17;;;;;;;22.85;15.43;;;;;;;;;;5044836;28;20029;-81
2022/03/23 10:34:54;;;;;;;19.92;14.93;;;;;;;;;;5026463;28;20043;-81
2022/03/23 10:37:30;;;;;;;22.33;15.02;;;;;;;;;;5049845;28;20029;-81
2022/03/23 10:39:59;;;;;;;19.20;13.80;;;;;;;;;;5029548;28;20496;-82
2022/03/23 10:42:27;;;;;;;23.55;14.48;;;;;;;;;;5028005;28;20489;-82
2022/03/23 10:45:10;;;;;;;24.42;14.48;;;;;;;;;;5025275;28;20124;-82
2022/03/23 10:47:37;;;;;;;17.90;13.32;;;;;;;;;;5022620;28;20069;-81
2022/03/23 10:50:10;;;;;;;18.17;13.32;;;;;;;;;;5025795;28;20469;-80
2022/03/23 10:52:46;;;;;;;21.30;13.73;;;;;;;;;;5017954;28;20456;-80
2022/03/23 10:55:13;;;;;;;20.02;13.55;;;;;;;;;;5038857;28;20034;-81
2022/03/23 10:57:44;;;;;;;18.23;13.13;;;;;;;;;;5045187;28;20048;-81
2022/03/23 11:00:17;;;;;;;18.02;13.13;;;;;;;;;;5042020;28;20040;-81
2022/03/23 11:02:47;;;;;;;18.50;13.07;;;;;;;;;;5028854;28;20388;-81
2022/03/23 11:05:29;;;;;;;19.45;12.90;;;;;;;;;;5042741;28;20759;-82
2022/03/23 11:08:08;;;;;;;16.20;12.30;;;;;;;;;;5015059;28;20029;-83
2022/03/23 11:16:06;;;;;;;18.05;12.73;;;;;;;;;;5041652;28;20111;-82
2022/03/23 11:18:32;;;;;;;14.75;11.57;;;;;;;;;;5042931;28;20866;-82
2022/03/23 11:20:57;;;;;;;15.57;11.85;;;;;;;;;;5024278;28;20037;-82
2022/03/23 11:23:23;;;;;;;15.02;11.65;;;;;;;;;;5033099;28;20036;-81
2022/03/23 11:25:53;;;;;;;17.70;12.50;;;;;;;;;;5045612;28;20045;-82
2022/03/23 11:28:20;;;;;;;15.32;12.52;;;;;;;;;;5028607;28;20064;-81
2022/03/23 11:30:47;;;;;;;17.33;12.40;;;;;;;;;;5047434;28;20331;-81
2022/03/23 11:33:22;;;;;;;16.27;11.57;;;;;;;;;;5030384;28;20078;-82
2022/03/23 11:35:50;;;;;;;15.77;11.23;;;;;;;;;;5029262;28;20468;-82
2022/03/23 11:38:20;;;;;;;15.65;11.73;;;;;;;;;;5022188;28;20041;-82
2022/03/23 11:40:47;;;;;;;17.77;11.95;;;;;;;;;;5026384;28;20033;-82
2022/03/23 11:43:13;;;;;;;13.90;11.30;;;;;;;;;;5027620;28;20026;-83
2022/03/23 11:45:41;;;;;;;13.82;10.73;;;;;;;;;;5040578;28;20041;-83
2022/03/23 11:48:15;;;;;;;15.38;11.18;;;;;;;;;;5044043;28;20112;-82
2022/03/23 11:51:11;;;;;;;15.38;11.52;;;;;;;;;;5046250;28;20028;-82
2022/03/23 11:53:56;;;;;;;15.32;11.23;;;;;;;;;;5045349;28;20040;-82
2022/03/23 11:56:36;;;;;;;13.73;10.75;;;;;;;;;;5034794;28;20036;-82
2022/03/23 11:59:18;;;;;;;13.95;11.65;;;;;;;;;;5032142;28;20068;-82
2022/03/23 12:01:44;;;;;;;16.23;11.95;;;;;;;;;;5033072;28;20753;-82
2022/03/23 12:04:13;;;;;;;16.07;11.63;;;;;;;;;;5023590;28;20037;-83
2022/03/23 12:06:40;;;;;;;14.75;12.00;;;;;;;;;;5029281;28;20064;-82
2022/03/23 12:09:06;;;;;;;19.88;13.45;;;;;;;;;;5017864;28;20037;-81
2022/03/23 12:11:34;;;;;;;18.63;12.68;;;;;;;;;;5021398;28;20032;-81
2022/03/23 12:14:03;;;;;;;16.15;12.68;;;;;;;;;;5027274;28;20408;-82
2022/03/23 12:16:52;;;;;;;17.33;12.02;;;;;;;;;;5026382;28;20139;-81
2022/03/23 12:19:19;;;;;;;14.48;11.85;;;;;;;;;;5032121;28;20075;-82
2022/03/23 12:21:53;;;;;;;15.35;11.93;;;;;;;;;;5028711;28;20044;-82
2022/03/23 12:24:35;;;;;;;16.02;12.88;;;;;;;;;;5027187;28;20037;-80
2022/03/23 12:27:07;;;;;;;17.50;13.18;;;;;;;;;;5025876;28;20064;-81
2022/03/23 12:29:36;;;;;;;19.58;13.43;;;;;;;;;;5030373;28;20039;-83
2022/03/23 12:32:05;;;;;;;18.17;14.05;;;;;;;;;;5027581;28;20117;-80
2022/03/23 12:34:32;;;;;;;18.88;13.73;;;;;;;;;;5029425;28;20368;-81
2022/03/23 12:37:16;;;;;;;15.48;12.18;;;;;;;;;;5032055;28;20039;-81
2022/03/23 12:39:46;;;;;;;16.00;13.20;;;;;;;;;;5040853;28;20070;-81
2022/03/23 12:42:12;;;;;;;17.05;13.77;;;;;;;;;;5040788;28;20051;-81
2022/03/23 12:44:39;;;;;;;16.93;12.67;;;;;;;;;;5048250;28;20419;-80
2022/03/23 12:47:25;;;;;;;17.52;13.48;;;;;;;;;;5026613;28;20275;-81
2022/03/23 12:58:27;;;;;;;19.45;15.13;;;;;;;;;;5011308;28;20053;-81
2022/03/23 13:00:55;;;;;;;19.13;14.45;;;;;;;;;;5025383;28;20148;-80
2022/03/23 13:03:22;;;;;;;20.77;14.68;;;;;;;;;;5007237;28;20053;-81
2022/03/23 13:05:59;;;;;;;20.27;15.35;;;;;;;;;;5024561;28;20041;-80
2022/03/23 13:08:30;;;;;;;21.58;15.02;;;;;;;;;;5010505;28;20029;-81
2022/03/23 13:11:02;;;;;;;21.63;15.48;;;;;;;;;;5007098;28;20033;-80
2022/03/23 13:13:29;;;;;;;23.75;15.20;;;;;;;;;;5021151;28;20115;-80
2022/03/23 13:15:55;;;;;;;18.30;15.55;;;;;;;;;;5026544;28;20041;-81
2022/03/23 13:18:30;;;;;;;21.27;15.88;;;;;;;;;;5010936;28;20077;-81
2022/03/23 13:20:57;;;;;;;18.83;15.60;;;;;;;;;;5007463;28;20263;-82
2022/03/23 13:23:23;;;;;;;21.20;15.88;;;;;;;;;;5023636;28;20042;-81
2022/03/23 13:26:04;;;;;;;19.40;15.15;;;;;;;;;;5008954;28;20052;-80
2022/03/23 13:28:32;;;;;;;21.80;14.82;;;;;;;;;;5042991;28;20045;-81
2022/03/23 13:31:01;;;;;;;18.67;15.32;;;;;;;;;;5027726;28;20037;-82
2022/03/23 13:33:42;;;;;;;22.45;15.75;;;;;;;;;;5016300;28;20064;-81
2022/03/23 13:36:09;;;;;;;19.58;17.00;;;;;;;;;;5043757;28;20036;-81
2022/03/23 13:38:40;;;;;;;21.02;16.50;;;;;;;;;;5021425;28;20037;-81
2022/03/23 13:43:53;;;;;;;21.65;16.25;;;;;;;;;;5041739;28;20101;-81
2022/03/23 13:46:23;;;;;;;21.92;16.48;;;;;;;;;;5033566;28;20116;-81
2022/03/23 13:49:28;;;;;;;21.30;16.70;;;;;;;;;;5027994;28;20063;-81
2022/03/23 13:52:00;;;;;;;22.33;17.58;;;;;;;;;;5041719;28;20044;-81
2022/03/23 13:54:25;;;;;;;20.52;16.73;;;;;;;;;;5048522;28;20033;-81
2022/03/23 13:56:51;;;;;;;21.88;17.40;;;;;;;;;;5029239;28;20560;-82
2022/03/23 13:59:17;;;;;;;26.10;17.70;;;;;;;;;;5033709;28;20037;-81
2022/03/23 14:01:47;;;;;;;25.42;18.38;;;;;;;;;;5031637;28;20196;-80
2022/03/23 14:04:17;;;;;;;24.35;17.58;;;;;;;;;;5028723;28;20503;-81
2022/03/23 14:06:52;;;;;;;26.67;18.77;;;;;;;;;;5039882;28;20103;-81
2022/03/23 14:09:20;;;;;;;22.33;17.40;;;;;;;;;;5043548;28;20419;-81
2022/03/23 14:14:22;;;;;;;24.35;18.40;;;;;;;;;;5046394;28;20033;-82
2022/03/23 14:17:09;;;;;;;25.35;18.77;;;;;;;;;;5027680;28;20500;-81
2022/03/23 14:19:36;;;;;;;22.67;18.23;;;;;;;;;;5023457;28;20037;-81
2022/03/23 14:22:03;;;;;;;;;;;;;;;;;;5043089;28;20041;-81
2022/03/23 14:24:33;;;;;;;25.90;19.25;;;;;;;;;;5025624;28;20156;-81
2022/03/23 14:27:19;;;;;;;24.55;18.60;;;;;;;;;;5027365;28;20032;-80
2022/03/23 14:30:02;;;;;;;25.35;18.33;;;;;;;;;;5028443;28;20042;-81
2022/03/23 14:32:29;;;;;;;24.90;17.70;;;;;;;;;;5021948;28;20049;-81
2022/03/23 14:34:56;;;;;;;22.92;18.30;;;;;;;;;;5025448;28;20113;-82
2022/03/23 14:37:35;;;;;;;23.15;17.85;;;;;;;;;;5020470;28;20509;-81
2022/03/23 14:40:01;;;;;;;23.45;18.20;;;;;;;;;;5044864;28;20119;-81
2022/03/23 14:42:32;;;;;;;27.38;18.90;;;;;;;;;;5030494;28;20037;-81
2022/03/23 14:44:59;;;;;;;27.85;18.00;;;;;;;;;;5032907;28;20416;-81
2022/03/23 14:47:44;;;;;;;23.83;18.35;;;;;;;;;;5030048;28;20037;-80
2022/03/23 14:50:10;;;;;;;24.70;18.77;;;;;;;;;;5036361;28;20036;-81
2022/03/23 14:52:35;;;;;;;24.10;18.98;;;;;;;;;;5045267;28;20052;-81
2022/03/23 14:55:01;;;;;;;26.98;19.25;;;;;;;;;;5028658;28;20475;-81
2022/03/23 14:57:26;;;;;;;23.40;18.50;;;;;;;;;;5039117;28;20090;-81
2022/03/23 14:59:52;;;;;;;23.55;18.90;;;;;;;;;;5031990;28;20059;-80
2022/03/23 15:02:18;;;;;;;24.15;18.40;;;;;;;;;;5027479;28;20091;-80